Time;durP1;ratioP1;P1;durP2;ratioP2;P2;SDS_P1;SDS_P2;PMS_P1;PMS_P2;Temp;Humidity;BMP_temperature;BMP_pressure;BME280_temperature;BME280_humidity;BME280_pressure;Samples;Min_cycle;Max_cycle;Signal;HPM_P1;HPM_P2
2021/01/05 00:01:39;;;;;;;23.53;12.57;;;;;;;;;;5094025;28;20793;-75
2021/01/05 00:04:05;;;;;;;19.10;9.73;;;;;;;;;;5111087;28;20537;-75
2021/01/05 00:06:31;;;;;;;20.20;10.30;;;;;;;;;;5104187;28;20566;-75
2021/01/05 00:08:57;;;;;;;18.63;9.47;;;;;;;;;;5116302;28;20427;-75
2021/01/05 00:11:23;;;;;;;24.83;10.93;;;;;;;;;;5113770;28;20446;-74
2021/01/05 00:13:49;;;;;;;21.20;10.67;;;;;;;;;;5115562;28;20755;-75
2021/01/05 00:16:15;;;;;;;25.47;11.17;;;;;;;;;;5097085;28;20814;-74
2021/01/05 00:18:41;;;;;;;21.00;10.73;;;;;;;;;;5095168;28;20407;-75
2021/01/05 00:21:07;;;;;;;21.57;11.70;;;;;;;;;;5100181;28;20427;-74
2021/01/05 00:23:33;;;;;;;20.63;10.33;;;;;;;;;;5115061;28;20446;-76
2021/01/05 00:25:59;;;;;;;24.33;10.30;;;;;;;;;;5113251;28;20467;-74
2021/01/05 00:28:25;;;;;;;17.80;10.60;;;;;;;;;;5115298;28;20392;-75
2021/01/05 00:30:51;;;;;;;26.93;12.60;;;;;;;;;;5113817;28;20449;-75
2021/01/05 00:33:17;;;;;;;21.23;11.50;;;;;;;;;;5115217;28;20396;-75
2021/01/05 00:35:43;;;;;;;22.83;11.63;;;;;;;;;;5113810;28;20479;-75
2021/01/05 00:38:10;;;;;;;21.47;10.50;;;;;;;;;;5115113;28;20754;-75
2021/01/05 00:40:36;;;;;;;20.57;10.07;;;;;;;;;;5112128;28;20403;-75
2021/01/05 00:43:03;;;;;;;18.40;9.90;;;;;;;;;;5093316;28;20448;-75
2021/01/05 00:45:29;;;;;;;21.13;10.60;;;;;;;;;;5093736;28;20507;-75
2021/01/05 00:47:55;;;;;;;18.87;10.87;;;;;;;;;;5114591;28;20454;-75
2021/01/05 00:50:21;;;;;;;23.00;10.53;;;;;;;;;;5115082;28;20403;-75
2021/01/05 00:52:47;;;;;;;22.20;10.50;;;;;;;;;;5113047;27;20419;-75
2021/01/05 00:55:14;;;;;;;21.53;9.30;;;;;;;;;;5108836;28;20792;-75
2021/01/05 00:57:40;;;;;;;21.87;10.10;;;;;;;;;;5103211;28;20581;-74
2021/01/05 01:00:08;;;;;;;20.27;10.57;;;;;;;;;;5105600;28;20461;-75
2021/01/05 01:02:34;;;;;;;22.93;10.53;;;;;;;;;;5095114;28;20440;-75
2021/01/05 01:05:00;;;;;;;24.50;12.43;;;;;;;;;;5094423;28;20414;-75
2021/01/05 01:07:26;;;;;;;27.93;13.70;;;;;;;;;;5093179;28;20456;-75
2021/01/05 01:09:52;;;;;;;28.60;12.47;;;;;;;;;;5094345;28;20473;-75
2021/01/05 01:12:20;;;;;;;25.90;12.17;;;;;;;;;;5105933;28;20923;-75
2021/01/05 01:14:47;;;;;;;23.93;11.50;;;;;;;;;;5114666;28;20814;-75
2021/01/05 01:17:13;;;;;;;18.90;11.50;;;;;;;;;;5112864;28;20962;-75
2021/01/05 01:19:39;;;;;;;24.63;11.87;;;;;;;;;;5114609;27;20498;-75
2021/01/05 01:22:05;;;;;;;28.27;12.33;;;;;;;;;;5112429;28;20460;-75
2021/01/05 01:24:31;;;;;;;23.70;11.10;;;;;;;;;;5114261;28;20758;-75
2021/01/05 01:26:57;;;;;;;26.33;11.77;;;;;;;;;;5112187;28;20462;-74
2021/01/05 01:29:24;;;;;;;24.27;12.30;;;;;;;;;;5114147;28;20478;-75
2021/01/05 01:31:51;;;;;;;26.47;12.37;;;;;;;;;;5112253;28;20435;-75
2021/01/05 01:34:18;;;;;;;23.60;12.57;;;;;;;;;;5113442;28;20451;-76
2021/01/05 01:36:54;;;;;;;23.57;11.77;;;;;;;;;;5112572;28;20459;-75
2021/01/05 01:39:20;;;;;;;24.50;11.83;;;;;;;;;;5115110;28;20470;-75
2021/01/05 01:41:46;;;;;;;28.53;13.47;;;;;;;;;;5112607;28;20977;-75
2021/01/05 01:44:19;;;;;;;27.67;13.00;;;;;;;;;;5112713;28;20492;-76
2021/01/05 01:46:46;;;;;;;27.43;12.00;;;;;;;;;;5088609;28;20463;-75
2021/01/05 01:49:12;;;;;;;31.63;13.03;;;;;;;;;;5114324;28;20411;-76
2021/01/05 01:51:39;;;;;;;27.40;13.30;;;;;;;;;;5112114;28;20934;-74
2021/01/05 01:54:08;;;;;;;19.17;12.20;;;;;;;;;;5113966;28;20395;-75
2021/01/05 01:57:01;;;;;;;26.47;12.30;;;;;;;;;;5106382;28;20901;-74
2021/01/05 01:59:36;;;;;;;25.90;11.70;;;;;;;;;;5090562;28;20425;-75
2021/01/05 02:02:06;;;;;;;29.80;11.87;;;;;;;;;;5092471;28;20482;-75
2021/01/05 02:04:44;;;;;;;23.60;10.53;;;;;;;;;;5091239;28;20442;-74
2021/01/05 02:07:18;;;;;;;27.83;11.27;;;;;;;;;;5102863;28;20462;-75
2021/01/05 02:10:03;;;;;;;23.50;11.10;;;;;;;;;;5113655;28;20391;-75
2021/01/05 02:12:33;;;;;;;17.30;10.67;;;;;;;;;;5110580;28;20427;-75
2021/01/05 02:15:02;;;;;;;20.67;11.80;;;;;;;;;;5113994;28;20786;-75
2021/01/05 02:17:28;;;;;;;31.17;12.97;;;;;;;;;;5111807;28;20451;-75
2021/01/05 02:19:57;;;;;;;24.20;11.37;;;;;;;;;;5113598;28;20439;-75
2021/01/05 02:22:26;;;;;;;28.53;12.50;;;;;;;;;;5112067;28;20789;-76
2021/01/05 02:25:11;;;;;;;24.77;11.87;;;;;;;;;;5112458;28;20503;-76
2021/01/05 02:27:50;;;;;;;28.23;10.60;;;;;;;;;;5097336;28;20809;-75
2021/01/05 02:30:18;;;;;;;26.33;12.60;;;;;;;;;;5093092;28;20885;-75
2021/01/05 02:32:55;;;;;;;23.33;11.37;;;;;;;;;;5106174;28;20427;-76
2021/01/05 02:35:30;;;;;;;24.80;11.07;;;;;;;;;;5113378;28;20495;-76
2021/01/05 02:37:56;;;;;;;23.33;12.53;;;;;;;;;;5110135;28;20505;-75
2021/01/05 02:40:38;;;;;;;20.73;8.73;;;;;;;;;;5113429;28;20995;-75
2021/01/05 02:43:19;;;;;;;25.80;11.17;;;;;;;;;;5095274;28;20436;-75
2021/01/05 02:46:05;;;;;;;27.93;13.43;;;;;;;;;;5094750;28;20504;-75
2021/01/05 02:48:31;;;;;;;24.90;11.37;;;;;;;;;;5063795;28;20525;-75
2021/01/05 02:51:00;;;;;;;23.20;11.10;;;;;;;;;;5076458;28;20413;-75
2021/01/05 02:53:35;;;;;;;25.53;11.87;;;;;;;;;;5104918;28;20440;-75
2021/01/05 02:56:13;;;;;;;24.30;10.37;;;;;;;;;;5117084;28;20460;-75
2021/01/05 02:58:57;;;;;;;28.07;12.73;;;;;;;;;;5095870;28;20443;-77
2021/01/05 03:01:29;;;;;;;21.97;10.27;;;;;;;;;;5089740;28;20842;-75
2021/01/05 03:03:55;;;;;;;24.90;12.80;;;;;;;;;;5096036;28;20770;-75
2021/01/05 03:06:24;;;;;;;26.37;11.60;;;;;;;;;;5096391;28;20455;-75
2021/01/05 03:09:09;;;;;;;23.13;11.50;;;;;;;;;;5112549;28;20968;-75
2021/01/05 03:11:42;;;;;;;29.30;13.57;;;;;;;;;;5117268;28;20475;-75
2021/01/05 03:14:13;;;;;;;25.77;11.03;;;;;;;;;;5114068;28;20455;-75
2021/01/05 03:16:45;;;;;;;27.67;11.43;;;;;;;;;;5116666;28;20824;-75
2021/01/05 03:19:34;;;;;;;19.63;10.47;;;;;;;;;;5113650;28;20448;-75
2021/01/05 03:22:03;;;;;;;21.13;11.17;;;;;;;;;;5095065;28;20428;-75
2021/01/05 03:24:31;;;;;;;23.00;10.97;;;;;;;;;;5117289;28;20407;-75
2021/01/05 03:26:57;;;;;;;24.80;11.20;;;;;;;;;;5115203;28;20847;-76
2021/01/05 03:29:23;;;;;;;29.90;12.40;;;;;;;;;;5122341;28;20827;-75
2021/01/05 03:32:00;;;;;;;23.87;10.33;;;;;;;;;;5126727;27;20403;-74
2021/01/05 03:34:26;;;;;;;25.37;11.50;;;;;;;;;;5092856;28;20432;-74
2021/01/05 03:36:52;;;;;;;25.50;11.73;;;;;;;;;;5085209;28;20448;-76
2021/01/05 03:39:18;;;;;;;20.13;10.20;;;;;;;;;;5100223;28;20423;-74
2021/01/05 03:41:44;;;;;;;21.13;10.43;;;;;;;;;;5096712;28;20453;-75
2021/01/05 03:44:10;;;;;;;23.87;10.70;;;;;;;;;;5113811;28;20431;-75
2021/01/05 03:46:36;;;;;;;28.20;10.77;;;;;;;;;;5111706;28;20510;-75
2021/01/05 03:49:03;;;;;;;30.80;11.83;;;;;;;;;;5112325;28;20451;-74
2021/01/05 03:51:28;;;;;;;19.33;10.00;;;;;;;;;;5116493;28;20419;-75
2021/01/05 03:53:55;;;;;;;25.70;11.03;;;;;;;;;;5098355;28;20481;-75
2021/01/05 03:56:21;;;;;;;23.30;10.20;;;;;;;;;;5095487;28;20893;-75
2021/01/05 03:58:47;;;;;;;25.77;10.80;;;;;;;;;;5108615;28;20514;-76
2021/01/05 04:01:13;;;;;;;23.67;10.80;;;;;;;;;;5102056;28;20790;-76
2021/01/05 04:03:40;;;;;;;27.60;10.30;;;;;;;;;;5088365;28;20423;-76
2021/01/05 04:06:06;;;;;;;25.80;11.83;;;;;;;;;;5095185;28;20456;-75
2021/01/05 04:08:32;;;;;;;24.27;10.47;;;;;;;;;;5106319;28;20415;-75
2021/01/05 04:10:58;;;;;;;19.80;9.20;;;;;;;;;;5115944;27;20747;-75
2021/01/05 04:13:24;;;;;;;22.90;9.67;;;;;;;;;;5113763;28;20431;-75
2021/01/05 04:15:50;;;;;;;28.23;10.83;;;;;;;;;;5115711;28;20427;-75
2021/01/05 04:18:17;;;;;;;35.60;13.30;;;;;;;;;;5113761;28;20423;-76
2021/01/05 04:20:43;;;;;;;25.80;11.00;;;;;;;;;;5115477;28;20786;-75
2021/01/05 04:23:09;;;;;;;19.80;10.93;;;;;;;;;;5112356;28;20423;-76
2021/01/05 04:25:35;;;;;;;24.60;10.73;;;;;;;;;;5115257;27;20423;-75
2021/01/05 04:28:01;;;;;;;25.73;11.63;;;;;;;;;;5100680;28;20423;-76
2021/01/05 04:30:27;;;;;;;25.40;10.80;;;;;;;;;;5115551;28;20403;-76
2021/01/05 04:32:53;;;;;;;27.43;11.73;;;;;;;;;;5113358;28;20965;-76
2021/01/05 04:35:20;;;;;;;24.27;10.70;;;;;;;;;;5114974;28;21334;-75
2021/01/05 04:37:46;;;;;;;22.33;10.77;;;;;;;;;;5113474;28;20904;-76
2021/01/05 04:40:31;;;;;;;22.97;11.47;;;;;;;;;;5115103;28;20410;-76
2021/01/05 04:43:24;;;;;;;33.10;11.50;;;;;;;;;;5113444;28;20423;-76
2021/01/05 04:45:53;;;;;;;20.97;11.00;;;;;;;;;;5113200;28;20471;-76
2021/01/05 04:48:34;;;;;;;24.00;10.77;;;;;;;;;;5112992;28;20544;-75
2021/01/05 04:51:01;;;;;;;20.07;10.13;;;;;;;;;;5112981;28;20436;-76
2021/01/05 04:53:32;;;;;;;25.70;11.50;;;;;;;;;;5102993;28;20778;-76
2021/01/05 04:55:58;;;;;;;24.87;10.50;;;;;;;;;;5114829;28;20423;-75
2021/01/05 04:58:49;;;;;;;22.23;9.93;;;;;;;;;;5105229;28;20489;-75
2021/01/05 05:01:18;;;;;;;22.33;10.37;;;;;;;;;;5092875;28;20442;-77
2021/01/05 05:03:47;;;;;;;24.40;11.47;;;;;;;;;;5092705;28;20962;-75
2021/01/05 05:06:13;;;;;;;26.87;10.97;;;;;;;;;;5094283;28;20811;-75
2021/01/05 05:08:39;;;;;;;24.67;11.03;;;;;;;;;;5093178;28;20429;-75
2021/01/05 05:11:12;;;;;;;19.97;11.50;;;;;;;;;;5093957;28;20499;-75
2021/01/05 05:13:47;;;;;;;22.50;10.43;;;;;;;;;;5093456;28;20448;-76
2021/01/05 05:16:22;;;;;;;28.27;12.17;;;;;;;;;;5094270;28;20485;-76
2021/01/05 05:19:01;;;;;;;23.13;10.60;;;;;;;;;;5093035;28;20478;-75
2021/01/05 05:21:53;;;;;;;26.23;10.87;;;;;;;;;;5093872;28;20538;-75
2021/01/05 05:24:30;;;;;;;25.17;10.63;;;;;;;;;;5098967;28;20438;-75
2021/01/05 05:27:05;;;;;;;24.40;12.00;;;;;;;;;;5114368;28;20541;-75
2021/01/05 05:29:43;;;;;;;26.50;11.07;;;;;;;;;;5096494;28;20434;-76
2021/01/05 05:32:14;;;;;;;27.73;11.47;;;;;;;;;;5093707;28;20395;-76
2021/01/05 05:34:54;;;;;;;27.60;11.10;;;;;;;;;;5093267;28;20435;-76
2021/01/05 05:37:38;;;;;;;25.87;12.00;;;;;;;;;;5093563;28;20682;-75
2021/01/05 05:40:24;;;;;;;17.97;9.53;;;;;;;;;;5093113;28;20443;-75
2021/01/05 05:43:09;;;;;;;24.23;11.00;;;;;;;;;;5093948;28;20381;-76
2021/01/05 05:45:46;;;;;;;19.93;9.90;;;;;;;;;;5111531;28;20453;-75
2021/01/05 05:48:32;;;;;;;26.70;10.97;;;;;;;;;;5095681;28;20427;-76
2021/01/05 05:51:04;;;;;;;24.83;10.53;;;;;;;;;;5066533;28;20432;-76
2021/01/05 05:53:32;;;;;;;21.30;9.93;;;;;;;;;;5075539;28;20396;-76
2021/01/05 05:56:00;;;;;;;32.03;11.60;;;;;;;;;;5113667;28;20423;-75
2021/01/05 05:58:32;;;;;;;23.63;9.90;;;;;;;;;;5111941;28;20392;-76
2021/01/05 06:01:00;;;;;;;22.97;11.27;;;;;;;;;;5093653;28;20817;-76
2021/01/05 06:03:26;;;;;;;20.97;10.73;;;;;;;;;;5090922;28;20431;-76
2021/01/05 06:05:53;;;;;;;24.40;10.67;;;;;;;;;;5092024;28;20456;-76
2021/01/05 06:08:19;;;;;;;25.87;10.70;;;;;;;;;;5093577;28;20401;-76
2021/01/05 06:10:45;;;;;;;26.50;12.60;;;;;;;;;;5098118;28;20484;-76
2021/01/05 06:13:12;;;;;;;23.50;10.27;;;;;;;;;;5113892;28;20396;-76
2021/01/05 06:15:38;;;;;;;24.03;10.43;;;;;;;;;;5093833;28;20966;-76
2021/01/05 06:18:05;;;;;;;29.83;11.93;;;;;;;;;;5093327;28;20449;-76
2021/01/05 06:20:31;;;;;;;32.60;10.60;;;;;;;;;;5092978;28;20511;-75
2021/01/05 06:22:57;;;;;;;23.00;10.97;;;;;;;;;;5096017;28;20837;-75
2021/01/05 06:25:23;;;;;;;23.73;11.40;;;;;;;;;;5111583;28;20453;-75
2021/01/05 06:27:49;;;;;;;20.47;10.23;;;;;;;;;;5117587;28;20446;-75
2021/01/05 06:30:16;;;;;;;24.47;11.60;;;;;;;;;;5101718;28;20419;-76
2021/01/05 06:32:42;;;;;;;29.73;12.37;;;;;;;;;;5097100;28;20916;-75
2021/01/05 06:35:08;;;;;;;26.80;11.37;;;;;;;;;;5109217;28;20427;-75
2021/01/05 06:37:34;;;;;;;22.17;10.33;;;;;;;;;;5105078;22;20992;-70
2021/01/05 06:40:00;;;;;;;26.23;12.43;;;;;;;;;;5075975;28;20413;-68
2021/01/05 06:42:26;;;;;;;23.60;10.90;;;;;;;;;;5076684;28;20449;-68
2021/01/05 06:44:52;;;;;;;21.80;10.23;;;;;;;;;;5090613;28;20424;-68
2021/01/05 06:47:18;;;;;;;25.37;10.80;;;;;;;;;;5113040;28;20478;-68
2021/01/05 06:49:44;;;;;;;27.30;11.60;;;;;;;;;;5106701;28;20432;-68
2021/01/05 06:52:11;;;;;;;25.73;11.67;;;;;;;;;;5096705;28;20411;-69
2021/01/05 06:54:37;;;;;;;26.57;12.30;;;;;;;;;;5103067;28;20429;-69
2021/01/05 06:57:03;;;;;;;33.27;12.10;;;;;;;;;;5117079;28;20450;-69
2021/01/05 06:59:29;;;;;;;24.93;12.17;;;;;;;;;;5115580;28;20439;-70
2021/01/05 07:01:57;;;;;;;22.57;10.37;;;;;;;;;;5104365;28;20444;-69
2021/01/05 07:04:23;;;;;;;23.87;11.20;;;;;;;;;;5100174;28;20488;-73
2021/01/05 07:06:49;;;;;;;25.73;12.17;;;;;;;;;;5094153;28;20861;-69
2021/01/05 07:09:16;;;;;;;31.33;13.40;;;;;;;;;;5099467;28;20467;-69
2021/01/05 07:11:42;;;;;;;23.53;10.90;;;;;;;;;;5115337;28;20418;-69
2021/01/05 07:14:08;;;;;;;23.37;11.87;;;;;;;;;;5111999;28;20428;-69
2021/01/05 07:16:35;;;;;;;23.30;10.83;;;;;;;;;;5095409;28;20434;-70
2021/01/05 07:19:01;;;;;;;32.47;12.17;;;;;;;;;;5096326;28;20405;-70
2021/01/05 07:21:27;;;;;;;22.00;11.60;;;;;;;;;;5116715;28;20753;-70
2021/01/05 07:23:53;;;;;;;24.87;10.67;;;;;;;;;;5114542;28;20887;-70
2021/01/05 07:26:19;;;;;;;24.90;12.17;;;;;;;;;;5116170;28;20451;-69
2021/01/05 07:28:45;;;;;;;25.70;12.33;;;;;;;;;;5116323;28;20952;-69
2021/01/05 07:31:11;;;;;;;29.87;12.27;;;;;;;;;;5114510;28;20455;-69
2021/01/05 07:33:37;;;;;;;25.27;12.50;;;;;;;;;;5115102;28;20403;-69
2021/01/05 07:36:08;;;;;;;23.93;10.23;;;;;;;;;;5113992;28;20553;-69
2021/01/05 07:38:34;;;;;;;34.80;13.10;;;;;;;;;;5116366;28;20433;-69
2021/01/05 07:41:00;;;;;;;25.63;12.20;;;;;;;;;;5114333;28;20426;-69
2021/01/05 07:43:26;;;;;;;29.80;12.67;;;;;;;;;;5116214;28;20407;-69
2021/01/05 07:45:52;;;;;;;32.40;11.80;;;;;;;;;;5097974;28;20467;-69
2021/01/05 07:48:18;;;;;;;26.57;12.00;;;;;;;;;;5095638;28;20924;-69
2021/01/05 07:50:44;;;;;;;26.13;11.40;;;;;;;;;;5103141;28;20424;-69
2021/01/05 07:53:10;;;;;;;28.60;12.70;;;;;;;;;;5094973;28;20416;-70
2021/01/05 07:55:36;;;;;;;22.00;9.90;;;;;;;;;;5107764;28;20427;-70
2021/01/05 07:58:02;;;;;;;25.20;11.57;;;;;;;;;;5115708;28;20423;-70
2021/01/05 08:00:29;;;;;;;31.07;12.23;;;;;;;;;;5113568;28;20469;-70
2021/01/05 08:02:56;;;;;;;29.70;11.77;;;;;;;;;;5115802;28;20395;-70
2021/01/05 08:05:26;;;;;;;30.10;12.67;;;;;;;;;;5113614;28;20430;-69
2021/01/05 08:07:53;;;;;;;31.47;12.90;;;;;;;;;;5092866;28;20960;-69
2021/01/05 08:10:24;;;;;;;25.03;10.53;;;;;;;;;;5104752;28;20927;-69
2021/01/05 08:12:51;;;;;;;23.27;11.70;;;;;;;;;;5115536;28;20395;-70
2021/01/05 08:15:18;;;;;;;25.73;10.80;;;;;;;;;;5113364;28;20935;-69
2021/01/05 08:17:44;;;;;;;20.10;11.37;;;;;;;;;;5115482;28;20433;-69
2021/01/05 08:20:10;;;;;;;29.40;11.50;;;;;;;;;;5105011;28;20468;-70
2021/01/05 08:22:36;;;;;;;22.27;10.70;;;;;;;;;;5094917;28;20909;-69
2021/01/05 08:25:03;;;;;;;20.90;11.17;;;;;;;;;;5093359;28;20450;-69
2021/01/05 08:27:29;;;;;;;26.70;11.70;;;;;;;;;;5095155;28;20459;-70
2021/01/05 08:29:55;;;;;;;23.20;10.60;;;;;;;;;;5099730;28;20426;-69
2021/01/05 08:32:23;;;;;;;29.73;11.67;;;;;;;;;;5115398;28;20414;-69
2021/01/05 08:34:49;;;;;;;28.97;12.67;;;;;;;;;;5113366;28;20505;-70
2021/01/05 08:37:15;;;;;;;36.00;13.83;;;;;;;;;;5096784;28;20448;-69
2021/01/05 08:39:42;;;;;;;28.70;13.07;;;;;;;;;;5097542;28;20427;-69
2021/01/05 08:42:08;;;;;;;24.03;11.83;;;;;;;;;;5094975;28;20865;-69
2021/01/05 08:44:34;;;;;;;28.93;13.00;;;;;;;;;;5093874;28;20789;-69
2021/01/05 08:47:01;;;;;;;30.03;11.43;;;;;;;;;;5106240;28;20471;-68
2021/01/05 08:49:29;;;;;;;25.00;12.63;;;;;;;;;;5087106;28;20467;-69
2021/01/05 08:51:55;;;;;;;27.90;12.50;;;;;;;;;;5093656;28;20401;-69
2021/01/05 08:54:21;;;;;;;24.23;12.00;;;;;;;;;;5093125;28;20422;-69
2021/01/05 08:56:51;;;;;;;25.33;11.20;;;;;;;;;;5114766;28;20484;-69
2021/01/05 08:59:17;;;;;;;27.27;12.73;;;;;;;;;;5111413;28;20416;-69
2021/01/05 09:01:43;;;;;;;23.37;11.37;;;;;;;;;;5113893;28;20440;-70
2021/01/05 09:04:09;;;;;;;20.53;10.73;;;;;;;;;;5115803;28;20395;-70
2021/01/05 09:06:35;;;;;;;26.27;12.70;;;;;;;;;;5111600;28;20462;-69
2021/01/05 09:09:01;;;;;;;22.37;11.20;;;;;;;;;;5092395;28;20417;-69
2021/01/05 09:11:28;;;;;;;23.80;10.90;;;;;;;;;;5088598;28;20464;-70
2021/01/05 09:13:54;;;;;;;24.00;10.77;;;;;;;;;;5073820;28;20907;-70
2021/01/05 09:16:20;;;;;;;25.97;12.60;;;;;;;;;;5106656;28;20447;-69
2021/01/05 09:18:46;;;;;;;24.60;11.03;;;;;;;;;;5097611;28;20783;-70
2021/01/05 09:21:12;;;;;;;26.47;12.83;;;;;;;;;;5107440;28;20431;-69
2021/01/05 09:23:39;;;;;;;30.17;12.07;;;;;;;;;;5114199;28;20422;-69
2021/01/05 09:26:08;;;;;;;33.53;14.83;;;;;;;;;;5091631;28;20511;-69
2021/01/05 09:28:35;;;;;;;28.23;11.90;;;;;;;;;;5093719;28;20450;-69
2021/01/05 09:31:01;;;;;;;26.40;10.60;;;;;;;;;;5092398;28;20432;-69
2021/01/05 09:33:27;;;;;;;22.33;10.33;;;;;;;;;;5111783;28;20434;-69
2021/01/05 09:35:53;;;;;;;23.60;11.00;;;;;;;;;;5111525;28;20823;-69
2021/01/05 09:38:19;;;;;;;21.00;10.30;;;;;;;;;;5113566;28;20404;-69
2021/01/05 09:40:45;;;;;;;28.83;12.20;;;;;;;;;;5094569;28;20420;-69
2021/01/05 09:43:12;;;;;;;30.83;12.73;;;;;;;;;;5092320;28;20974;-69
2021/01/05 09:45:40;;;;;;;24.90;11.97;;;;;;;;;;5100087;28;20759;-69
2021/01/05 09:48:08;;;;;;;29.20;12.90;;;;;;;;;;5113947;28;20769;-69
2021/01/05 09:50:35;;;;;;;23.60;10.53;;;;;;;;;;5094349;28;20432;-70
2021/01/05 09:53:01;;;;;;;26.40;11.67;;;;;;;;;;5093030;28;20404;-71
2021/01/05 09:55:27;;;;;;;21.17;11.80;;;;;;;;;;5090574;28;20488;-69
2021/01/05 09:57:53;;;;;;;25.33;11.77;;;;;;;;;;5093443;28;20494;-69
2021/01/05 10:00:20;;;;;;;29.37;14.80;;;;;;;;;;5091836;28;20428;-71
2021/01/05 10:02:46;;;;;;;33.75;15.50;;;;;;;;;;5092308;28;20400;-69
2021/01/05 10:05:13;;;;;;;30.73;13.40;;;;;;;;;;5097389;28;20249;-74
2021/01/05 10:07:39;;;;;;;27.02;13.75;;;;;;;;;;5099007;28;20436;-68
2021/01/05 10:10:06;;;;;;;28.48;13.52;;;;;;;;;;5090776;28;20488;-69
2021/01/05 10:12:32;;;;;;;37.75;15.80;;;;;;;;;;5094724;28;20476;-68
2021/01/05 10:14:58;;;;;;;36.67;13.67;;;;;;;;;;5092139;28;20633;-69
2021/01/05 10:17:24;;;;;;;24.83;13.40;;;;;;;;;;5093148;28;20429;-70
2021/01/05 10:19:50;;;;;;;29.88;12.80;;;;;;;;;;5092441;28;20405;-68
2021/01/05 10:22:16;;;;;;;25.00;12.50;;;;;;;;;;5113661;28;20618;-69
2021/01/05 10:24:42;;;;;;;33.75;15.27;;;;;;;;;;5097331;28;20465;-68
2021/01/05 10:27:08;;;;;;;23.17;11.10;;;;;;;;;;5110469;28;20193;-70
2021/01/05 10:29:34;;;;;;;25.77;11.13;;;;;;;;;;5093257;28;20767;-70
2021/01/05 10:32:01;;;;;;;31.13;14.93;;;;;;;;;;5089167;28;20413;-70
2021/01/05 10:34:27;;;;;;;27.20;12.37;;;;;;;;;;5091555;28;20576;-68
2021/01/05 10:36:53;;;;;;;21.90;11.63;;;;;;;;;;5090381;28;20463;-68
2021/01/05 10:39:20;;;;;;;32.77;12.63;;;;;;;;;;5091941;28;20469;-68
2021/01/05 10:41:46;;;;;;;27.23;12.33;;;;;;;;;;5093640;28;20433;-70
2021/01/05 10:44:16;;;;;;;25.20;13.00;;;;;;;;;;5090745;28;20414;-71
2021/01/05 10:46:42;;;;;;;22.90;11.83;;;;;;;;;;5089925;28;20210;-69
2021/01/05 10:49:09;;;;;;;26.13;11.43;;;;;;;;;;5091066;28;20484;-69
2021/01/05 10:51:35;;;;;;;33.10;11.60;;;;;;;;;;5090843;28;20427;-69
2021/01/05 10:54:02;;;;;;;20.87;11.00;;;;;;;;;;5091822;28;20400;-68
2021/01/05 10:56:28;;;;;;;22.10;10.40;;;;;;;;;;5090602;28;20880;-69
2021/01/05 10:58:54;;;;;;;31.67;12.43;;;;;;;;;;5091406;28;20499;-68
2021/01/05 11:01:20;;;;;;;28.73;11.70;;;;;;;;;;5083356;28;20466;-68
2021/01/05 11:03:46;;;;;;;27.60;11.10;;;;;;;;;;5088437;28;20424;-70
2021/01/05 11:06:12;;;;;;;31.17;13.98;;;;;;;;;;5085796;28;20440;-69
2021/01/05 11:08:38;;;;;;;31.52;15.52;;;;;;;;;;5095434;28;20761;-70
2021/01/05 11:11:05;;;;;;;26.27;13.47;;;;;;;;;;5097443;28;20175;-71
2021/01/05 11:13:34;;;;;;;33.13;14.45;;;;;;;;;;5098537;28;20782;-68
2021/01/05 11:16:00;;;;;;;35.73;13.97;;;;;;;;;;5097575;28;20205;-69
2021/01/05 11:18:26;;;;;;;28.90;12.77;;;;;;;;;;5112805;28;20412;-70
2021/01/05 11:20:52;;;;;;;29.60;12.07;;;;;;;;;;5091412;28;20928;-70
2021/01/05 11:23:18;;;;;;;29.13;10.63;;;;;;;;;;5091838;28;20416;-71
2021/01/05 11:25:44;;;;;;;31.20;13.60;;;;;;;;;;5090709;28;20463;-71
2021/01/05 11:28:11;;;;;;;24.53;10.70;;;;;;;;;;5093223;28;20424;-71
2021/01/05 11:30:37;;;;;;;30.43;11.07;;;;;;;;;;5100180;28;20415;-71
2021/01/05 11:33:03;;;;;;;29.07;10.83;;;;;;;;;;5095888;28;20549;-73
2021/01/05 11:35:29;;;;;;;23.60;11.60;;;;;;;;;;5095730;28;20755;-71
2021/01/05 11:37:55;;;;;;;30.17;11.20;;;;;;;;;;5101504;28;20439;-70
2021/01/05 11:40:21;;;;;;;33.53;11.93;;;;;;;;;;5095114;28;20404;-71
2021/01/05 11:42:49;;;;;;;27.07;11.80;;;;;;;;;;5103699;28;20507;-71
2021/01/05 11:45:15;;;;;;;25.30;11.83;;;;;;;;;;5092892;28;20412;-71
2021/01/05 11:47:41;;;;;;;21.70;11.60;;;;;;;;;;5092984;28;20956;-70
2021/01/05 11:50:10;;;;;;;26.70;11.10;;;;;;;;;;5094339;28;20404;-70
2021/01/05 11:52:36;;;;;;;27.97;10.70;;;;;;;;;;5093166;28;20427;-70
2021/01/05 11:55:02;;;;;;;23.77;10.77;;;;;;;;;;5094534;28;20775;-70
2021/01/05 11:57:28;;;;;;;22.40;9.63;;;;;;;;;;5095592;28;20447;-70
2021/01/05 11:59:54;;;;;;;31.57;10.87;;;;;;;;;;5088568;28;20400;-71
2021/01/05 12:02:20;;;;;;;27.80;12.30;;;;;;;;;;5089883;28;20455;-71
2021/01/05 12:04:46;;;;;;;19.73;9.87;;;;;;;;;;5093076;28;20416;-71
2021/01/05 12:07:12;;;;;;;26.07;11.93;;;;;;;;;;5092150;28;20513;-71
2021/01/05 12:09:38;;;;;;;23.27;9.87;;;;;;;;;;5093963;28;20400;-70
2021/01/05 12:12:09;;;;;;;22.60;12.37;;;;;;;;;;5088881;28;20432;-71
2021/01/05 12:14:35;;;;;;;29.63;9.83;;;;;;;;;;5090003;28;20419;-70
2021/01/05 12:17:02;;;;;;;20.30;10.17;;;;;;;;;;5093638;28;20523;-71
2021/01/05 12:19:30;;;;;;;27.70;10.47;;;;;;;;;;5093325;28;20404;-71
2021/01/05 12:22:00;;;;;;;31.73;11.07;;;;;;;;;;5094927;28;20839;-71
2021/01/05 12:24:27;;;;;;;20.27;9.77;;;;;;;;;;5092396;28;20412;-71
2021/01/05 12:26:55;;;;;;;21.93;10.60;;;;;;;;;;5091764;28;20487;-71
2021/01/05 12:29:23;;;;;;;25.67;11.67;;;;;;;;;;5093887;28;20392;-71
2021/01/05 12:31:55;;;;;;;22.40;10.43;;;;;;;;;;5092979;28;20424;-71
2021/01/05 12:34:26;;;;;;;34.83;10.30;;;;;;;;;;5093987;28;20381;-71
2021/01/05 12:36:52;;;;;;;29.47;12.80;;;;;;;;;;5107798;22;20488;-69
2021/01/05 12:39:19;;;;;;;23.37;11.17;;;;;;;;;;5073198;28;20404;-70
2021/01/05 12:41:45;;;;;;;24.07;11.50;;;;;;;;;;5079187;28;20459;-71
2021/01/05 12:44:14;;;;;;;19.47;9.83;;;;;;;;;;5076127;28;20397;-71
2021/01/05 12:46:40;;;;;;;24.60;10.03;;;;;;;;;;5086398;28;20462;-70
2021/01/05 12:49:07;;;;;;;26.43;12.20;;;;;;;;;;5112804;28;20392;-70
2021/01/05 12:51:35;;;;;;;39.60;10.90;;;;;;;;;;5096555;28;20419;-70
2021/01/05 12:54:01;;;;;;;30.20;11.37;;;;;;;;;;5114862;28;20394;-70
2021/01/05 12:56:28;;;;;;;35.87;11.60;;;;;;;;;;5112482;28;20443;-70
2021/01/05 12:58:54;;;;;;;27.53;10.90;;;;;;;;;;5114754;28;20796;-70
2021/01/05 13:01:20;;;;;;;19.77;10.80;;;;;;;;;;5112446;28;20513;-71
2021/01/05 13:03:47;;;;;;;26.80;12.10;;;;;;;;;;5101040;28;20428;-70
2021/01/05 13:06:13;;;;;;;23.60;11.10;;;;;;;;;;5091667;28;20452;-70
2021/01/05 13:08:43;;;;;;;18.33;9.07;;;;;;;;;;5095633;28;20415;-70
2021/01/05 13:11:10;;;;;;;22.70;10.87;;;;;;;;;;5112216;28;20400;-69
2021/01/05 13:13:38;;;;;;;24.37;11.00;;;;;;;;;;5104358;28;20423;-70
2021/01/05 13:16:04;;;;;;;21.53;10.13;;;;;;;;;;5093172;28;20892;-69
2021/01/05 13:18:30;;;;;;;28.33;10.27;;;;;;;;;;5112679;28;20444;-70
2021/01/05 13:20:56;;;;;;;17.90;8.93;;;;;;;;;;5114322;28;20393;-70
2021/01/05 13:23:22;;;;;;;21.43;10.77;;;;;;;;;;5112171;28;20816;-70
2021/01/05 13:25:48;;;;;;;23.63;9.70;;;;;;;;;;5114227;28;20400;-70
2021/01/05 13:28:14;;;;;;;23.60;10.67;;;;;;;;;;5111822;28;20476;-70
2021/01/05 13:30:40;;;;;;;24.27;10.70;;;;;;;;;;5100422;28;20511;-70
2021/01/05 13:33:06;;;;;;;24.10;10.43;;;;;;;;;;5108102;28;20433;-70
2021/01/05 13:35:32;;;;;;;20.50;9.23;;;;;;;;;;5113934;28;20401;-71
2021/01/05 13:37:58;;;;;;;20.23;10.40;;;;;;;;;;5111607;28;20953;-70
2021/01/05 13:40:24;;;;;;;23.57;12.13;;;;;;;;;;5097923;28;20431;-70
2021/01/05 13:42:56;;;;;;;28.17;12.43;;;;;;;;;;5105225;28;20427;-71
2021/01/05 13:45:22;;;;;;;22.33;10.77;;;;;;;;;;5114059;28;20387;-70
2021/01/05 13:47:48;;;;;;;25.60;11.07;;;;;;;;;;5109388;28;20490;-70
2021/01/05 13:50:14;;;;;;;24.40;12.53;;;;;;;;;;5113656;28;20887;-71
2021/01/05 13:52:44;;;;;;;31.77;13.20;;;;;;;;;;5109662;28;20476;-69
2021/01/05 13:55:10;;;;;;;29.93;11.20;;;;;;;;;;5114430;28;20402;-71
2021/01/05 13:57:36;;;;;;;32.50;12.00;;;;;;;;;;5099619;28;20454;-71
2021/01/05 14:00:04;;;;;;;23.50;10.67;;;;;;;;;;5104803;28;20811;-71
2021/01/05 14:02:30;;;;;;;24.40;10.17;;;;;;;;;;5096312;28;20427;-69
2021/01/05 14:04:56;;;;;;;21.03;9.47;;;;;;;;;;5093135;28;20767;-70
2021/01/05 14:07:23;;;;;;;23.87;11.00;;;;;;;;;;5098705;28;20451;-70
2021/01/05 14:09:49;;;;;;;21.93;9.00;;;;;;;;;;5113317;28;20579;-70
2021/01/05 14:12:19;;;;;;;13.07;7.10;;;;;;;;;;5111686;28;20505;-70
2021/01/05 14:14:46;;;;;;;24.40;10.40;;;;;;;;;;5111353;28;20416;-69
2021/01/05 14:17:13;;;;;;;27.93;11.23;;;;;;;;;;5097695;28;20443;-70
2021/01/05 14:19:42;;;;;;;28.53;13.17;;;;;;;;;;5113556;28;20399;-70
2021/01/05 14:22:08;;;;;;;22.43;10.20;;;;;;;;;;5112231;28;20849;-70
2021/01/05 14:24:34;;;;;;;21.87;9.23;;;;;;;;;;5113739;28;20814;-70